createdAt,value
2023-04-27T00:00:31.152Z,6.32
2023-04-27T00:03:33.219Z,8.43
2023-04-27T00:06:35.009Z,8.75
2023-04-27T00:09:36.860Z,8.85
2023-04-27T00:12:39.380Z,9.40
2023-04-27T00:15:41.222Z,7.47
2023-04-27T00:18:43.219Z,12.52
2023-04-27T00:21:44.963Z,8.95
2023-04-27T00:24:46.815Z,10.60
2023-04-27T00:27:49.063Z,8.05
2023-04-27T00:30:53.969Z,10.43
2023-04-27T00:33:55.942Z,10.27
2023-04-27T00:36:57.899Z,12.23
2023-04-27T00:39:59.414Z,8.73
2023-04-27T00:43:01.169Z,8.85
2023-04-27T00:46:03.543Z,6.40
2023-04-27T00:49:05.460Z,9.82
2023-04-27T00:52:07.719Z,8.38
2023-04-27T00:55:09.662Z,8.50
2023-04-27T00:58:11.836Z,7.43
2023-04-27T01:01:13.437Z,9.65
2023-04-27T01:04:16.993Z,9.52
2023-04-27T01:07:19.046Z,9.82
2023-04-27T01:10:20.825Z,6.45
2023-04-27T01:13:22.685Z,8.52
2023-04-27T01:16:24.412Z,9.38
2023-04-27T01:19:26.112Z,8.88
2023-04-27T01:22:27.828Z,9.88
2023-04-27T01:25:29.728Z,9.13
2023-04-27T01:28:31.709Z,11.15
2023-04-27T01:31:35.462Z,7.88
2023-04-27T01:34:37.103Z,12.85
2023-04-27T01:37:39.579Z,8.43
2023-04-27T01:40:41.300Z,6.75
2023-04-27T01:43:43.832Z,9.57
2023-04-27T01:46:45.588Z,7.40
2023-04-27T01:49:47.649Z,7.97
2023-04-27T01:52:49.279Z,7.25
2023-04-27T01:55:51.255Z,7.55
2023-04-27T01:58:53.675Z,8.02
2023-04-27T02:01:56.433Z,6.97
2023-04-27T02:04:58.165Z,7.10
2023-04-27T02:08:01.178Z,6.85
2023-04-27T02:11:03.043Z,11.10
2023-04-27T02:14:04.742Z,8.20
2023-04-27T02:17:06.853Z,12.63
2023-04-27T02:20:10.124Z,11.05
2023-04-27T02:23:11.871Z,8.32
2023-04-27T02:26:18.113Z,7.30
2023-04-27T02:29:20.005Z,7.22
2023-04-27T02:32:22.926Z,10.45
2023-04-27T02:35:24.566Z,9.80
2023-04-27T02:38:26.253Z,7.38
2023-04-27T02:41:31.937Z,9.27
2023-04-27T02:44:33.581Z,9.57
2023-04-27T02:47:35.423Z,8.30
2023-04-27T02:50:46.469Z,9.88
2023-04-27T02:56:50.592Z,8.00
2023-04-27T02:59:52.289Z,6.63
2023-04-27T03:02:54.038Z,8.80
2023-04-27T03:05:56.704Z,7.43
2023-04-27T03:08:58.517Z,9.63
2023-04-27T03:12:02.780Z,11.70
2023-04-27T03:15:04.833Z,7.50
2023-04-27T03:18:06.615Z,8.75
2023-04-27T03:21:10.664Z,10.25
2023-04-27T03:24:12.495Z,14.00
2023-04-27T03:27:14.283Z,6.55
2023-04-27T03:30:17.564Z,7.28
2023-04-27T03:33:19.542Z,10.30
2023-04-27T03:36:21.193Z,8.45
2023-04-27T03:39:23.128Z,7.65
2023-04-27T03:42:24.957Z,7.13
2023-04-27T03:45:26.855Z,8.50
2023-04-27T03:48:28.910Z,5.55
2023-04-27T03:51:33.176Z,6.68
2023-04-27T03:54:35.176Z,7.70
2023-04-27T03:57:36.811Z,8.02
2023-04-27T04:00:38.727Z,7.97
2023-04-27T04:03:40.766Z,7.82
2023-04-27T04:06:43.578Z,6.57
2023-04-27T04:09:46.610Z,5.57
2023-04-27T04:12:48.434Z,9.23
2023-04-27T04:16:04.614Z,7.30
2023-04-27T04:19:07.005Z,9.30
2023-04-27T04:22:09.919Z,8.40
2023-04-27T04:25:11.977Z,6.85
2023-04-27T04:28:14.211Z,10.23
2023-04-27T04:31:18.368Z,8.23
2023-04-27T04:34:20.148Z,7.72
2023-04-27T04:37:23.293Z,10.88
2023-04-27T04:40:26.276Z,10.38
2023-04-27T04:43:28.571Z,9.43
2023-04-27T04:46:31.025Z,9.95
2023-04-27T04:49:32.794Z,8.88
2023-04-27T04:52:34.447Z,7.60
2023-04-27T04:55:36.243Z,11.82
2023-04-27T04:58:38.386Z,8.50
2023-04-27T05:01:40.319Z,12.30
2023-04-27T05:04:42.294Z,7.28
2023-04-27T05:07:44.438Z,10.00
2023-04-27T05:10:53.942Z,7.55
2023-04-27T05:13:56.479Z,10.07
2023-04-27T05:16:58.354Z,7.70
2023-04-27T05:19:59.993Z,10.43
2023-04-27T05:23:02.229Z,8.68
2023-04-27T05:26:11.690Z,9.32
2023-04-27T05:29:13.686Z,7.93
2023-04-27T05:32:15.839Z,9.45
2023-04-27T05:35:20.147Z,6.70
2023-04-27T05:38:21.883Z,8.73
2023-04-27T05:41:27.587Z,9.15
2023-04-27T05:44:31.448Z,10.20
2023-04-27T05:47:33.311Z,12.05
2023-04-27T05:50:35.296Z,12.45
2023-04-27T05:53:37.081Z,9.70
2023-04-27T05:56:39.886Z,9.65
2023-04-27T05:59:42.440Z,8.93
2023-04-27T06:02:44.463Z,9.95
2023-04-27T06:05:46.560Z,8.55
2023-04-27T06:08:48.408Z,14.82
2023-04-27T06:11:50.231Z,8.18
2023-04-27T06:14:52.331Z,12.02
2023-04-27T06:17:54.029Z,6.20
2023-04-27T06:21:05.199Z,11.57
2023-04-27T06:24:07.461Z,5.70
2023-04-27T06:27:09.261Z,6.65
2023-04-27T06:30:11.847Z,7.70
2023-04-27T06:33:16.580Z,5.65
2023-04-27T06:36:18.564Z,10.00
2023-04-27T06:39:20.474Z,8.85
2023-04-27T06:42:22.426Z,7.57
2023-04-27T06:45:24.484Z,7.72
2023-04-27T06:48:28.843Z,7.65
2023-04-27T06:51:30.583Z,7.30
2023-04-27T06:54:32.388Z,11.25
2023-04-27T06:57:35.366Z,5.13
2023-04-27T07:00:37.163Z,10.32
2023-04-27T07:03:39.414Z,7.55
2023-04-27T07:06:41.206Z,7.10
2023-04-27T07:09:43.690Z,5.53
2023-04-27T07:12:45.458Z,6.18
2023-04-27T07:15:47.127Z,6.40
2023-04-27T07:18:48.870Z,4.50
2023-04-27T07:21:53.196Z,6.18
2023-04-27T07:24:57.227Z,7.80
2023-04-27T07:27:59.971Z,6.90
2023-04-27T07:31:04.494Z,9.02
2023-04-27T07:34:06.394Z,3.08
2023-04-27T07:37:08.226Z,5.82
2023-04-27T07:40:11.597Z,4.38
2023-04-27T07:43:13.692Z,6.05
2023-04-27T07:46:16.338Z,11.27
2023-04-27T07:49:21.271Z,7.20
2023-04-27T07:52:28.406Z,3.10
2023-04-27T07:55:30.179Z,4.72
2023-04-27T07:58:31.969Z,4.45
2023-04-27T08:01:33.837Z,4.18
2023-04-27T08:04:36.262Z,2.40
2023-04-27T08:07:44.155Z,3.85
2023-04-27T08:10:49.822Z,4.55
2023-04-27T08:13:52.123Z,5.22
2023-04-27T08:16:53.989Z,3.22
2023-04-27T08:19:58.750Z,3.75
2023-04-27T08:23:00.335Z,3.28
2023-04-27T08:26:04.475Z,4.32
2023-04-27T08:29:26.228Z,4.45
2023-04-27T08:32:28.937Z,3.83
2023-04-27T08:35:31.006Z,5.78
2023-04-27T08:38:35.960Z,11.18
2023-04-27T08:41:43.961Z,2.50
2023-04-27T08:44:46.076Z,3.90
2023-04-27T08:47:47.724Z,4.43
2023-04-27T08:50:51.946Z,4.97
2023-04-27T08:53:56.478Z,2.92
2023-04-27T08:56:58.834Z,3.55
2023-04-27T09:00:01.264Z,2.72
2023-04-27T09:03:07.310Z,5.15
2023-04-27T09:06:09.339Z,3.78
2023-04-27T09:09:22.332Z,8.25
2023-04-27T09:12:26.256Z,4.18
2023-04-27T09:15:31.322Z,5.00
2023-04-27T09:18:39.061Z,3.35
2023-04-27T09:21:49.611Z,4.10
2023-04-27T09:24:54.838Z,4.80
2023-04-27T09:28:02.669Z,3.90
2023-04-27T09:31:09.617Z,4.90
2023-04-27T09:34:16.184Z,3.88
2023-04-27T09:37:19.214Z,3.67
2023-04-27T09:40:28.419Z,4.07
2023-04-27T09:43:32.172Z,3.33
2023-04-27T09:46:34.701Z,5.13
2023-04-27T09:49:36.371Z,4.85
2023-04-27T09:52:38.704Z,2.80
2023-04-27T09:55:48.921Z,3.95
2023-04-27T09:59:26.977Z,4.85
2023-04-27T10:02:50.081Z,5.20
2023-04-27T10:06:27.612Z,3.10
2023-04-27T10:09:37.074Z,2.25
2023-04-27T10:12:39.637Z,5.10
2023-04-27T10:15:41.482Z,2.95
2023-04-27T10:18:53.184Z,8.52
2023-04-27T10:22:04.131Z,2.45
2023-04-27T10:28:26.247Z,2.88
2023-04-27T10:31:31.671Z,4.63
2023-04-27T10:34:38.847Z,4.57
2023-04-27T10:37:42.729Z,2.63
2023-04-27T10:40:46.552Z,2.20
2023-04-27T10:43:48.368Z,2.42
2023-04-27T10:46:52.258Z,3.15
2023-04-27T10:49:59.028Z,5.55
2023-04-27T10:53:08.204Z,3.13
2023-04-27T10:56:10.515Z,6.28
2023-04-27T10:59:13.715Z,3.45
2023-04-27T11:02:16.588Z,4.45
2023-04-27T11:05:20.135Z,3.58
2023-04-27T11:08:21.987Z,2.53
2023-04-27T11:11:24.306Z,3.60
2023-04-27T11:14:26.636Z,2.20
2023-04-27T11:17:34.662Z,1.95
2023-04-27T11:20:36.715Z,3.63
2023-04-27T11:23:39.464Z,4.05
2023-04-27T11:26:41.350Z,3.10
2023-04-27T11:29:43.335Z,2.70
2023-04-27T11:32:45.616Z,2.97
2023-04-27T11:35:47.866Z,2.38
2023-04-27T11:38:50.150Z,3.00
2023-04-27T11:41:52.110Z,1.77
2023-04-27T11:45:00.099Z,2.92
2023-04-27T11:48:03.933Z,5.72
2023-04-27T11:51:07.116Z,3.10
2023-04-27T11:54:10.345Z,4.55
2023-04-27T11:57:12.099Z,1.90
2023-04-27T12:00:15.380Z,4.30
2023-04-27T12:03:17.558Z,3.00
2023-04-27T12:06:32.773Z,3.55
2023-04-27T12:09:35.448Z,5.00
2023-04-27T12:12:37.285Z,5.07
2023-04-27T12:15:39.918Z,2.67
2023-04-27T12:18:41.649Z,2.60
2023-04-27T12:21:43.747Z,2.72
2023-04-27T12:24:45.637Z,4.13
2023-04-27T12:27:48.992Z,2.58
2023-04-27T12:30:51.091Z,5.70
2023-04-27T12:33:53.988Z,4.47
2023-04-27T12:36:55.985Z,4.47
2023-04-27T12:39:58.016Z,2.20
2023-04-27T12:43:01.442Z,4.38
2023-04-27T12:46:04.291Z,2.45
2023-04-27T12:49:09.567Z,2.92
2023-04-27T12:52:11.367Z,2.33
2023-04-27T12:55:24.887Z,2.88
2023-04-27T12:58:33.216Z,1.90
2023-04-27T13:01:35.448Z,1.95
2023-04-27T13:04:37.467Z,3.17
2023-04-27T13:07:39.374Z,4.97
2023-04-27T13:10:42.290Z,2.17
2023-04-27T13:13:48.017Z,3.63
2023-04-27T13:16:50.093Z,3.13
2023-04-27T13:19:52.882Z,3.33
2023-04-27T13:22:54.635Z,4.82
2023-04-27T13:25:56.357Z,4.50
2023-04-27T13:28:59.755Z,2.80
2023-04-27T13:32:02.133Z,3.30
2023-04-27T13:35:05.362Z,2.28
2023-04-27T13:38:07.392Z,3.58
2023-04-27T13:41:09.338Z,3.58
2023-04-27T13:44:11.305Z,3.28
2023-04-27T13:47:13.315Z,2.95
2023-04-27T13:50:15.035Z,4.45
2023-04-27T13:53:17.537Z,4.32
2023-04-27T13:56:19.442Z,4.60
2023-04-27T13:59:21.787Z,3.25
2023-04-27T14:02:25.380Z,3.33
2023-04-27T14:05:27.567Z,5.38
2023-04-27T14:08:29.310Z,4.82
2023-04-27T14:11:31.935Z,4.50
2023-04-27T14:14:37.502Z,4.60
2023-04-27T14:17:39.616Z,4.43
2023-04-27T14:20:42.472Z,2.13
2023-04-27T14:23:44.319Z,2.85
2023-04-27T14:26:47.768Z,5.57
2023-04-27T14:29:49.700Z,2.40
2023-04-27T14:32:51.853Z,2.38
2023-04-27T14:35:54.649Z,4.40
2023-04-27T14:38:56.572Z,3.75
2023-04-27T14:41:58.483Z,2.53
2023-04-27T14:45:00.313Z,4.00
2023-04-27T14:48:02.537Z,3.72
2023-04-27T14:51:05.840Z,5.65
2023-04-27T14:54:09.118Z,2.28
2023-04-27T14:57:10.951Z,5.40
2023-04-27T15:00:15.438Z,5.05
2023-04-27T15:03:17.575Z,2.95
2023-04-27T15:06:19.688Z,2.83
2023-04-27T15:09:21.533Z,5.28
2023-04-27T15:12:23.690Z,4.93
2023-04-27T15:15:25.658Z,2.80
2023-04-27T15:18:27.295Z,4.38
2023-04-27T15:21:30.647Z,5.20
2023-04-27T15:24:32.392Z,4.82
2023-04-27T15:27:34.205Z,3.53
2023-04-27T15:30:36.200Z,3.95
2023-04-27T15:33:37.882Z,3.40
2023-04-27T15:36:39.871Z,4.55
2023-04-27T15:39:42.182Z,3.30
2023-04-27T15:42:44.167Z,4.18
2023-04-27T15:45:46.137Z,4.82
2023-04-27T15:48:47.957Z,5.22
2023-04-27T15:51:50.193Z,3.08
2023-04-27T15:54:51.880Z,3.30
2023-04-27T15:57:54.030Z,4.18
2023-04-27T16:00:55.774Z,2.90
2023-04-27T16:03:57.842Z,5.20
2023-04-27T16:06:59.732Z,4.53
2023-04-27T16:10:01.898Z,3.53
2023-04-27T16:13:03.914Z,2.50
2023-04-27T16:16:08.465Z,4.35
2023-04-27T16:19:10.465Z,4.18
2023-04-27T16:22:12.288Z,4.18
2023-04-27T16:25:14.095Z,3.60
2023-04-27T16:28:18.168Z,2.55
2023-04-27T16:31:20.243Z,3.70
2023-04-27T16:34:21.913Z,4.25
2023-04-27T16:37:23.768Z,3.33
2023-04-27T16:40:25.737Z,7.57
2023-04-27T16:43:28.082Z,6.20
2023-04-27T16:46:29.948Z,4.22
2023-04-27T16:49:31.865Z,3.78
2023-04-27T16:52:33.649Z,3.35
2023-04-27T16:55:35.804Z,3.65
2023-04-27T16:58:37.514Z,5.18
2023-04-27T17:01:39.488Z,3.75
2023-04-27T17:04:43.247Z,4.10
2023-04-27T17:07:45.754Z,3.55
2023-04-27T17:10:47.820Z,3.67
2023-04-27T17:13:50.482Z,4.97
2023-04-27T17:16:53.129Z,5.20
2023-04-27T17:19:55.083Z,2.90
2023-04-27T17:22:57.142Z,3.45
2023-04-27T17:25:58.906Z,4.30
2023-04-27T17:29:01.627Z,5.95
2023-04-27T17:32:04.292Z,3.35
2023-04-27T17:35:06.416Z,5.55
2023-04-27T17:38:08.395Z,3.97
2023-04-27T17:41:10.223Z,2.92
2023-04-27T17:44:12.814Z,2.60
2023-04-27T17:47:14.772Z,3.08
2023-04-27T17:50:16.563Z,3.45
2023-04-27T17:53:18.367Z,5.22
2023-04-27T17:56:20.161Z,6.13
2023-04-27T17:59:22.207Z,3.67
2023-04-27T18:02:24.022Z,2.50
2023-04-27T18:05:26.884Z,3.40
2023-04-27T18:08:28.404Z,3.10
2023-04-27T18:11:29.974Z,3.13
2023-04-27T18:14:31.647Z,3.50
2023-04-27T18:17:33.655Z,4.03
2023-04-27T18:20:36.540Z,4.72
2023-04-27T18:23:39.432Z,3.67
2023-04-27T18:26:41.130Z,5.50
2023-04-27T18:29:43.402Z,5.22
2023-04-27T18:32:45.374Z,4.88
2023-04-27T18:35:47.386Z,3.50
2023-04-27T18:38:49.193Z,4.03
2023-04-27T18:41:50.855Z,5.32
2023-04-27T18:44:54.760Z,7.72
2023-04-27T18:47:56.727Z,4.63
2023-04-27T18:50:58.633Z,4.25
2023-04-27T18:54:00.377Z,4.47
2023-04-27T18:57:04.310Z,5.38
2023-04-27T19:00:06.872Z,4.43
2023-04-27T19:03:08.841Z,3.90
2023-04-27T19:06:10.771Z,3.85
2023-04-27T19:09:12.659Z,3.63
2023-04-27T19:12:14.444Z,5.15
2023-04-27T19:15:16.378Z,7.70
2023-04-27T19:18:18.138Z,4.05
2023-04-27T19:21:19.994Z,3.60
2023-04-27T19:24:21.593Z,3.53
2023-04-27T19:27:23.431Z,3.90
2023-04-27T19:30:25.366Z,4.40
2023-04-27T19:33:28.717Z,6.05
2023-04-27T19:36:31.790Z,4.38
2023-04-27T19:39:34.499Z,6.32
2023-04-27T19:42:36.327Z,3.85
2023-04-27T19:45:39.059Z,5.03
2023-04-27T19:48:42.341Z,4.95
2023-04-27T19:51:44.319Z,4.15
2023-04-27T19:54:51.563Z,5.70
2023-04-27T19:57:53.148Z,4.97
2023-04-27T20:00:55.031Z,3.92
2023-04-27T20:03:57.459Z,5.38
2023-04-27T20:06:59.288Z,4.65
2023-04-27T20:10:02.676Z,4.35
2023-04-27T20:13:04.879Z,5.38
2023-04-27T20:16:06.639Z,3.05
2023-04-27T20:19:10.707Z,4.97
2023-04-27T20:22:13.242Z,4.68
2023-04-27T20:25:15.542Z,3.38
2023-04-27T20:28:17.269Z,6.45
2023-04-27T20:31:19.112Z,5.15
2023-04-27T20:34:21.185Z,3.97
2023-04-27T20:37:23.580Z,5.18
2023-04-27T20:40:25.732Z,2.90
2023-04-27T20:43:27.578Z,5.13
2023-04-27T20:46:29.836Z,5.03
2023-04-27T20:49:35.278Z,5.72
2023-04-27T20:52:37.596Z,5.38
2023-04-27T20:55:39.522Z,5.13
2023-04-27T20:58:41.344Z,5.10
2023-04-27T21:01:43.314Z,4.45
2023-04-27T21:04:45.211Z,7.38
2023-04-27T21:07:46.977Z,6.82
2023-04-27T21:10:48.534Z,3.83
2023-04-27T21:13:50.274Z,6.22
2023-04-27T21:16:52.032Z,6.30
2023-04-27T21:19:53.997Z,5.85
2023-04-27T21:22:56.418Z,4.85
2023-04-27T21:25:58.144Z,4.95
2023-04-27T21:28:59.923Z,4.45
2023-04-27T21:32:01.848Z,5.07
2023-04-27T21:35:03.981Z,5.70
2023-04-27T21:38:05.966Z,5.38
2023-04-27T21:41:07.881Z,6.80
2023-04-27T21:44:10.401Z,7.70
2023-04-27T21:47:12.217Z,6.78
2023-04-27T21:50:13.914Z,6.65
2023-04-27T21:53:15.800Z,6.47
2023-04-27T21:56:17.531Z,5.40
2023-04-27T21:59:19.180Z,7.18
2023-04-27T22:02:20.961Z,6.93
2023-04-27T22:05:22.772Z,5.30
2023-04-27T22:08:24.625Z,5.95
2023-04-27T22:11:26.516Z,6.45
2023-04-27T22:14:28.923Z,9.75
2023-04-27T22:17:30.666Z,7.68
2023-04-27T22:20:33.195Z,8.93
2023-04-27T22:23:35.063Z,5.25
2023-04-27T22:26:37.058Z,4.38
2023-04-27T22:29:38.726Z,4.20
2023-04-27T22:32:40.489Z,6.20
2023-04-27T22:35:43.534Z,6.10
2023-04-27T22:38:45.121Z,5.68
2023-04-27T22:41:46.597Z,5.30
2023-04-27T22:44:48.308Z,7.18
2023-04-27T22:47:50.108Z,7.63
2023-04-27T22:50:51.879Z,5.40
2023-04-27T22:53:54.269Z,6.70
2023-04-27T22:56:56.479Z,7.22
2023-04-27T22:59:58.358Z,4.90
2023-04-27T23:03:00.275Z,5.18
2023-04-27T23:06:02.142Z,6.55
2023-04-27T23:09:04.001Z,6.28
2023-04-27T23:12:07.804Z,4.97
2023-04-27T23:15:10.174Z,6.03
2023-04-27T23:18:12.030Z,5.25
2023-04-27T23:21:13.808Z,8.88
2023-04-27T23:24:15.620Z,9.80
2023-04-27T23:27:18.182Z,7.20
2023-04-27T23:30:21.319Z,4.78
2023-04-27T23:33:23.070Z,4.32
2023-04-27T23:36:24.745Z,5.63
2023-04-27T23:39:28.009Z,5.47
2023-04-27T23:42:29.771Z,8.63
2023-04-27T23:45:31.665Z,7.00
2023-04-27T23:48:33.607Z,4.63
2023-04-27T23:51:35.242Z,4.65
2023-04-27T23:54:37.154Z,6.32
2023-04-27T23:57:38.974Z,4.15
